Time;durP1;ratioP1;P1;durP2;ratioP2;P2;SDS_P1;SDS_P2;PMS_P1;PMS_P2;Temp;Humidity;BMP_temperature;BMP_pressure;BME280_temperature;BME280_humidity;BME280_pressure;Samples;Min_cycle;Max_cycle;Signal;HPM_P1;HPM_P2
2023/03/14 00:01:29;;;;;;;14.32;7.78;;;;;;;2.53;72.05;101439.47;4922512;28;20038;-84
2023/03/14 00:03:57;;;;;;;15.97;7.30;;;;;;;2.65;71.74;101448.50;4934830;28;20447;-84
2023/03/14 00:06:23;;;;;;;13.82;7.03;;;;;;;2.34;72.08;101423.72;4915345;28;20053;-84
2023/03/14 00:08:51;;;;;;;14.25;6.88;;;;;;;2.46;72.26;101436.31;4912193;29;20043;-84
2023/03/14 00:11:18;;;;;;;14.02;6.50;;;;;;;2.48;72.18;101430.88;4928724;28;20111;-83
2023/03/14 00:13:50;;;;;;;15.65;6.90;;;;;;;2.48;72.39;101430.88;4914518;29;20047;-84
2023/03/14 00:16:18;;;;;;;14.32;7.22;;;;;;;2.47;71.97;101416.78;4916567;28;20047;-84
2023/03/14 00:18:46;;;;;;;14.55;6.15;;;;;;;2.50;71.40;101415.72;4918716;29;20149;-84
2023/03/14 00:21:12;;;;;;;13.70;6.22;;;;;;;2.60;71.52;101424.00;4959158;28;20051;-85
2023/03/14 00:23:39;;;;;;;11.30;5.82;;;;;;;2.42;72.07;101415.34;4922871;28;20041;-84
2023/03/14 00:26:11;;;;;;;13.38;5.70;;;;;;;2.42;72.35;101412.69;4961124;28;20039;-83
2023/03/14 00:28:37;;;;;;;10.30;5.63;;;;;;;2.45;72.32;101415.16;4962699;28;20141;-84
2023/03/14 00:31:04;;;;;;;13.38;6.20;;;;;;;2.43;72.35;101411.72;4935427;28;20404;-84
2023/03/14 00:33:31;;;;;;;22.20;11.70;;;;;;;2.49;71.90;101406.91;4934554;28;20152;-85
2023/03/14 00:35:58;;;;;;;13.75;7.18;;;;;;;2.23;72.11;101367.81;4953529;28;20043;-85
2023/03/14 00:38:26;;;;;;;13.45;6.93;;;;;;;2.47;71.69;101397.34;4934162;28;20119;-85
2023/03/14 00:40:53;;;;;;;12.68;6.93;;;;;;;2.32;72.22;101384.03;4938251;28;20130;-83
2023/03/14 00:43:19;;;;;;;10.55;6.05;;;;;;;2.20;72.14;101352.03;4948123;28;20079;-85
2023/03/14 00:45:45;;;;;;;13.65;6.93;;;;;;;2.11;72.13;101340.19;4969524;28;20035;-84
2023/03/14 00:48:11;;;;;;;14.88;7.25;;;;;;;2.23;72.70;101379.25;4951117;28;20069;-84
2023/03/14 00:50:36;;;;;;;14.50;7.72;;;;;;;2.16;72.39;101346.06;4949893;28;20571;-83
2023/03/14 00:53:02;;;;;;;13.30;6.83;;;;;;;2.11;73.05;101364.91;4921751;28;20038;-83
2023/03/14 00:55:29;;;;;;;14.63;6.32;;;;;;;2.36;72.39;101373.22;4951345;28;20090;-83
2023/03/14 00:57:55;;;;;;;10.20;5.40;;;;;;;2.38;72.25;101366.03;4926225;28;20042;-83
2023/03/14 01:00:21;;;;;;;10.70;5.50;;;;;;;2.30;72.13;101347.91;4938073;28;20054;-84
2023/03/14 01:02:47;;;;;;;13.63;5.13;;;;;;;2.29;72.39;101352.38;4975810;28;20297;-82
2023/03/14 01:05:12;;;;;;;9.07;5.00;;;;;;;2.36;72.15;101344.03;4954773;28;20056;-85
2023/03/14 01:07:38;;;;;;;10.67;5.00;;;;;;;2.44;72.31;101363.03;4929984;28;20766;-85
2023/03/14 01:10:05;;;;;;;10.23;5.10;;;;;;;2.33;72.43;101340.63;4949066;28;20066;-83
2023/03/14 01:12:33;;;;;;;10.40;5.03;;;;;;;2.33;72.51;101340.63;4945282;28;20039;-84
2023/03/14 01:14:58;;;;;;;9.75;4.78;;;;;;;2.23;72.61;101344.78;4967360;28;20117;-84
2023/03/14 01:17:26;;;;;;;8.20;4.65;;;;;;;2.35;72.72;101356.47;4948707;28;20051;-83
2023/03/14 01:19:52;;;;;;;9.75;4.97;;;;;;;2.26;72.82;101339.28;4949201;28;20106;-85
2023/03/14 01:22:18;;;;;;;8.17;4.30;;;;;;;2.41;72.82;101347.25;4938627;28;20102;-83
2023/03/14 01:24:44;;;;;;;10.00;4.68;;;;;;;2.40;73.09;101345.56;4921253;28;20050;-83
2023/03/14 01:27:11;;;;;;;9.50;4.80;;;;;;;2.30;73.39;101345.25;4948584;28;20070;-82
2023/03/14 01:29:36;;;;;;;7.00;4.20;;;;;;;2.31;73.10;101342.50;4949506;28;20099;-83
2023/03/14 01:32:03;;;;;;;12.50;4.60;;;;;;;2.30;73.28;101339.97;4929063;28;20058;-84
2023/03/14 01:34:28;;;;;;;7.32;4.15;;;;;;;2.40;72.94;101350.88;4952799;28;20054;-84
2023/03/14 01:36:54;;;;;;;6.83;3.90;;;;;;;2.10;73.25;101303.97;4937778;28;20069;-82
2023/03/14 01:39:20;;;;;;;8.63;4.20;;;;;;;2.33;72.65;101326.50;4952234;28;20794;-83
2023/03/14 01:41:47;;;;;;;6.80;3.90;;;;;;;2.47;72.86;101353.06;4952038;28;20098;-84
2023/03/14 01:44:13;;;;;;;7.25;4.07;;;;;;;2.47;72.79;101346.91;4960044;28;20058;-84
2023/03/14 01:46:42;;;;;;;8.35;4.38;;;;;;;2.52;72.95;101355.44;4953460;28;20053;-84
2023/03/14 01:49:27;;;;;;;9.10;4.35;;;;;;;2.56;72.40;101364.09;4945116;28;20047;-83
2023/03/14 01:51:56;;;;;;;8.23;4.35;;;;;;;2.55;72.23;101360.56;4953092;28;20027;-83
2023/03/14 01:54:36;;;;;;;7.72;3.70;;;;;;;2.54;72.37;101353.56;4953962;28;20058;-84
2023/03/14 01:57:17;;;;;;;9.45;4.07;;;;;;;2.56;72.42;101358.78;4928725;28;20051;-83
2023/03/14 01:59:46;;;;;;;7.10;4.15;;;;;;;2.46;72.58;101354.03;4957702;28;20046;-83
2023/03/14 02:02:12;;;;;;;8.95;3.90;;;;;;;2.30;72.81;101329.34;4952556;28;20050;-83
2023/03/14 02:04:39;;;;;;;7.90;3.90;;;;;;;2.35;72.60;101345.84;4951535;28;20486;-82
2023/03/14 02:07:22;;;;;;;6.57;3.88;;;;;;;2.31;72.69;101344.31;4936245;28;20043;-84
2023/03/14 02:09:49;;;;;;;8.85;3.85;;;;;;;2.38;72.88;101356.25;4940305;28;20047;-82
2023/03/14 02:12:15;;;;;;;6.80;4.18;;;;;;;2.42;72.44;101347.19;4954526;28;20058;-81
2023/03/14 02:14:47;;;;;;;7.20;4.13;;;;;;;2.31;72.63;101336.34;4955885;28;20158;-83
2023/03/14 02:17:14;;;;;;;10.55;4.55;;;;;;;2.37;72.97;101343.09;4946651;28;20347;-82
2023/03/14 02:20:12;;;;;;;10.55;4.63;;;;;;;2.30;72.71;101327.53;4961480;28;20050;-83
2023/03/14 02:22:40;;;;;;;10.93;4.65;;;;;;;2.21;72.88;101336.03;4969973;28;20206;-83
2023/03/14 02:25:13;;;;;;;7.30;4.18;;;;;;;2.30;73.10;101348.75;4956704;28;20066;-84
2023/03/14 02:27:39;;;;;;;8.43;4.93;;;;;;;2.22;73.03;101343.03;4969000;28;20122;-86
2023/03/14 02:30:12;;;;;;;14.07;7.07;;;;;;;2.19;72.64;101334.44;4929947;28;20050;-83
2023/03/14 02:32:40;;;;;;;16.40;7.78;;;;;;;2.15;72.43;101333.75;4946843;28;20153;-83
2023/03/14 02:35:09;;;;;;;13.07;7.18;;;;;;;2.22;72.91;101364.28;4937718;28;20148;-82
2023/03/14 02:37:43;;;;;;;11.93;6.28;;;;;;;2.17;73.02;101362.84;4953143;28;20058;-84
2023/03/14 02:40:09;;;;;;;16.27;9.77;;;;;;;2.05;73.47;101359.09;4925216;28;20153;-83
2023/03/14 02:42:36;;;;;;;15.73;9.50;;;;;;;2.09;73.26;101365.94;4967008;28;20105;-83
2023/03/14 02:45:10;;;;;;;19.73;10.75;;;;;;;2.04;73.02;101368.88;4955505;28;20150;-83
2023/03/14 02:47:56;;;;;;;23.83;11.70;;;;;;;1.92;73.61;101364.28;4967238;28;20502;-83
2023/03/14 02:50:24;;;;;;;18.42;10.90;;;;;;;1.98;73.41;101363.06;4951999;28;20074;-84
2023/03/14 02:52:50;;;;;;;21.27;11.68;;;;;;;1.77;73.90;101343.94;4934474;28;20111;-81
2023/03/14 02:55:21;;;;;;;21.02;11.85;;;;;;;1.81;73.92;101370.19;4947544;28;20464;-80
2023/03/14 02:57:46;;;;;;;22.55;11.05;;;;;;;1.90;74.29;101377.63;4945241;28;20034;-82
2023/03/14 03:00:12;;;;;;;22.23;12.13;;;;;;;1.59;75.73;101370.56;4942052;28;20054;-82
2023/03/14 03:02:40;;;;;;;29.25;11.93;;;;;;;1.43;76.65;101367.88;4933397;28;20483;-83
2023/03/14 03:05:08;;;;;;;21.77;12.23;;;;;;;1.46;76.80;101373.00;4950538;28;20046;-84
2023/03/14 03:07:33;;;;;;;20.77;12.05;;;;;;;1.47;76.37;101369.44;4961926;28;20035;-85
2023/03/14 03:09:59;;;;;;;23.90;11.33;;;;;;;1.37;76.42;101356.78;4960135;28;20042;-84
2023/03/14 03:12:24;;;;;;;21.27;11.67;;;;;;;1.34;77.05;101368.41;4937718;28;20030;-85
2023/03/14 03:14:50;;;;;;;23.10;11.73;;;;;;;1.12;77.17;101338.72;4967223;28;20270;-84
2023/03/14 03:17:17;;;;;;;31.17;12.50;;;;;;;1.30;77.22;101363.34;4941179;28;20051;-83
2023/03/14 03:19:43;;;;;;;25.65;12.02;;;;;;;1.39;76.96;101360.19;4966773;28;20035;-84
2023/03/14 03:22:10;;;;;;;22.60;11.37;;;;;;;1.26;76.81;101349.41;4920947;28;20046;-83
2023/03/14 03:24:35;;;;;;;21.88;11.70;;;;;;;1.30;77.30;101356.25;4956565;28;20420;-82
2023/03/14 03:27:02;;;;;;;22.88;11.48;;;;;;;1.30;76.77;101345.66;4986541;28;20030;-83
2023/03/14 03:29:31;;;;;;;24.67;11.30;;;;;;;1.43;76.24;101346.69;4953277;28;20042;-82
2023/03/14 03:31:56;;;;;;;23.02;11.23;;;;;;;1.30;76.79;101343.00;4928576;28;20082;-85
2023/03/14 03:34:22;;;;;;;22.53;11.53;;;;;;;1.21;77.07;101335.56;4923261;28;20046;-84
2023/03/14 03:36:47;;;;;;;18.20;10.77;;;;;;;1.23;77.20;101336.34;4930433;28;20361;-84
2023/03/14 03:39:13;;;;;;;18.63;10.87;;;;;;;1.20;77.45;101340.00;4934805;28;20624;-84
2023/03/14 03:41:41;;;;;;;21.80;10.50;;;;;;;1.00;78.00;101311.94;4931508;28;20050;-84
2023/03/14 03:44:08;;;;;;;20.63;10.43;;;;;;;1.26;77.42;101333.50;4947365;28;20466;-83
2023/03/14 03:46:34;;;;;;;22.15;11.75;;;;;;;1.34;77.12;101335.75;4925830;28;20038;-83
2023/03/14 03:49:01;;;;;;;25.17;10.63;;;;;;;1.28;76.58;101302.50;4947576;28;20050;-83
2023/03/14 03:51:27;;;;;;;25.02;11.45;;;;;;;1.36;76.54;101324.13;4947440;28;20278;-84
2023/03/14 03:53:55;;;;;;;22.50;10.85;;;;;;;1.36;76.60;101334.72;4945577;28;20149;-84
2023/03/14 03:56:21;;;;;;;22.05;11.88;;;;;;;1.25;77.23;101329.16;4934646;28;20054;-84
2023/03/14 03:58:48;;;;;;;17.50;10.50;;;;;;;1.13;77.40;101319.25;4934709;28;20372;-83
2023/03/14 04:01:14;;;;;;;20.73;9.85;;;;;;;1.32;77.16;101346.44;4949830;28;20129;-85
2023/03/14 04:03:40;;;;;;;19.27;9.60;;;;;;;1.31;77.09;101339.44;4940986;28;20068;-84
2023/03/14 04:06:11;;;;;;;19.02;9.75;;;;;;;1.39;76.69;101334.53;4916594;28;20062;-84
2023/03/14 04:08:36;;;;;;;22.10;8.63;;;;;;;1.19;77.32;101324.19;4949221;28;20066;-83
2023/03/14 04:11:03;;;;;;;19.35;8.48;;;;;;;1.26;76.95;101307.00;4965726;28;20572;-85
2023/03/14 04:13:33;;;;;;;14.60;7.63;;;;;;;1.33;76.72;101324.28;4948658;28;20499;-83
2023/03/14 04:15:59;;;;;;;12.00;6.75;;;;;;;1.37;76.53;101320.53;4938501;28;20046;-85
2023/03/14 04:18:25;;;;;;;13.05;6.40;;;;;;;1.32;76.48;101309.34;4967501;28;20043;-85
2023/03/14 04:20:54;;;;;;;15.60;7.47;;;;;;;1.33;76.94;101329.56;4944030;28;20156;-85
2023/03/14 04:23:19;;;;;;;14.40;8.35;;;;;;;1.40;76.77;101317.69;4946389;28;20046;-85
2023/03/14 04:25:46;;;;;;;17.27;8.77;;;;;;;1.40;76.38;101309.75;4931879;28;20503;-84
2023/03/14 04:28:12;;;;;;;20.25;10.23;;;;;;;1.50;76.33;101327.78;4949337;28;20476;-85
2023/03/14 04:30:37;;;;;;;20.17;9.70;;;;;;;1.44;76.02;101327.19;4957432;28;20141;-83
2023/03/14 04:33:03;;;;;;;20.85;10.35;;;;;;;1.41;76.07;101314.13;4947418;28;20043;-85
2023/03/14 04:35:32;;;;;;;21.08;10.57;;;;;;;1.29;76.50;101317.47;4943081;28;20051;-85
2023/03/14 04:37:57;;;;;;;22.52;10.93;;;;;;;1.37;76.22;101320.53;4935025;28;20072;-87
2023/03/14 04:40:25;;;;;;;22.83;11.43;;;;;;;1.34;76.14;101304.81;4951277;28;20101;-83
2023/03/14 04:42:52;;;;;;;22.38;12.27;;;;;;;1.34;76.12;101315.41;4923397;28;20031;-84
2023/03/14 04:45:18;;;;;;;25.80;12.38;;;;;;;1.39;76.23;101331.91;4936971;28;20083;-84
2023/03/14 04:47:45;;;;;;;29.20;12.63;;;;;;;1.36;76.28;101318.81;4941961;28;20058;-85
2023/03/14 04:50:10;;;;;;;26.55;12.85;;;;;;;1.32;76.34;101317.28;4939883;28;20062;-84
2023/03/14 04:52:36;;;;;;;28.67;13.97;;;;;;;1.22;76.24;101290.44;4942398;28;20409;-83
2023/03/14 04:55:04;;;;;;;28.65;15.07;;;;;;;1.33;76.50;101312.84;4936160;28;20754;-85
2023/03/14 04:57:31;;;;;;;28.60;14.25;;;;;;;1.45;76.10;101318.31;4955828;28;20158;-83
2023/03/14 04:59:58;;;;;;;27.80;15.00;;;;;;;1.47;75.98;101300.53;4941274;28;20046;-83
2023/03/14 05:02:28;;;;;;;36.63;17.67;;;;;;;1.75;75.77;101320.16;4949846;28;20135;-83
2023/03/14 05:04:54;;;;;;;27.05;14.93;;;;;;;1.76;75.74;101302.47;4948967;28;20035;-82
2023/03/14 05:07:19;;;;;;;34.53;16.63;;;;;;;1.85;75.61;101297.47;4940267;28;20109;-84
2023/03/14 05:09:48;;;;;;;86.50;37.90;;;;;;;1.88;75.45;101302.59;4928750;28;20104;-87
2023/03/14 05:12:13;;;;;;;32.10;18.13;;;;;;;2.00;75.47;101311.63;4956240;28;20070;-87
2023/03/14 05:14:45;;;;;;;39.13;16.17;;;;;;;2.01;75.35;101299.22;4921961;28;20118;-85
2023/03/14 05:17:14;;;;;;;37.33;16.15;;;;;;;1.96;74.82;101299.47;4951805;28;20096;-94
2023/03/14 05:19:41;;;;;;;36.95;15.98;;;;;;;2.05;75.22;101300.75;4944647;28;20117;-90
2023/03/14 05:22:13;;;;;;;44.60;14.77;;;;;;;2.12;74.97;101307.41;4971453;28;20197;-88
2023/03/14 05:24:42;;;;;;;34.33;14.32;;;;;;;2.17;74.68;101310.63;4933416;28;20054;-93
2023/03/14 05:27:11;;;;;;;38.60;14.07;;;;;;;2.40;74.48;101319.03;4941178;28;20046;-89
2023/03/14 05:29:36;;;;;;;28.60;13.55;;;;;;;2.57;73.85;101328.63;4952956;28;20059;-87
2023/03/14 05:32:02;;;;;;;31.40;12.63;;;;;;;2.59;73.62;101332.88;4935845;29;20519;-86
2023/03/14 05:34:30;;;;;;;34.15;13.38;;;;;;;2.58;73.59;101317.06;4968548;28;20126;-86
2023/03/14 05:36:56;;;;;;;40.97;13.25;;;;;;;2.60;73.20;101317.81;4955919;28;20502;-88
2023/03/14 05:39:23;;;;;;;28.63;13.23;;;;;;;2.60;72.98;101289.47;4950328;28;20039;-86
2023/03/14 05:41:48;;;;;;;35.50;13.57;;;;;;;2.78;72.49;101302.56;4933800;28;20058;-90
2023/03/14 05:44:15;;;;;;;33.70;13.80;;;;;;;2.82;72.37;101296.13;4947799;28;20058;-87
2023/03/14 05:46:42;;;;;;;35.15;13.73;;;;;;;2.71;73.46;101294.97;4953841;28;20106;-88
2023/03/14 05:49:07;;;;;;;30.95;13.70;;;;;;;3.02;72.88;101298.38;4956265;28;20043;-87
2023/03/14 05:51:39;;;;;;;32.15;13.13;;;;;;;3.11;72.35;101287.19;4972207;28;20042;-87
2023/03/14 05:54:06;;;;;;;36.10;12.95;;;;;;;3.22;72.44;101288.28;4938212;29;20103;-87
2023/03/14 05:56:33;;;;;;;38.28;13.55;;;;;;;3.36;73.52;101305.03;4936753;28;20058;-88
2023/03/14 05:59:02;;;;;;;28.30;12.32;;;;;;;3.76;72.25;101320.22;4936486;28;20055;-88
2023/03/14 06:01:28;;;;;;;29.58;13.23;;;;;;;4.96;69.27;101283.56;4954606;28;20046;-88
2023/03/14 06:03:55;;;;;;;;;;;;;;;8.68;60.42;101315.00;4957131;28;20049;-87
2023/03/14 06:06:22;;;;;;;24.27;11.70;;;;;;;11.45;51.09;101315.44;4954011;28;20453;-90
2023/03/14 06:08:47;;;;;;;29.92;10.80;;;;;;;13.74;44.94;101305.41;4963693;28;20485;-88
2023/03/14 06:11:13;;;;;;;21.63;10.13;;;;;;;15.60;40.04;101290.00;4938304;28;20050;-88
2023/03/14 06:13:41;;;;;;;22.13;10.45;;;;;;;17.08;35.00;101279.56;4948983;28;20137;-87
2023/03/14 06:16:07;;;;;;;15.75;8.40;;;;;;;18.55;33.03;101297.44;4954678;28;20535;-86
2023/03/14 06:18:34;;;;;;;;;;;;;;;19.73;30.90;101305.63;4953211;28;20196;-84
2023/03/14 06:21:01;;;;;;;15.40;7.35;;;;;;;20.65;28.31;101287.66;4970969;28;19937;-89
2023/03/14 06:23:31;;;;;;;17.55;7.38;;;;;;;21.53;26.67;101295.38;4944098;28;20557;-89
2023/03/14 06:25:59;;;;;;;12.75;6.20;;;;;;;21.90;26.34;101284.66;4972893;28;20110;-89
2023/03/14 06:28:27;;;;;;;14.90;6.75;;;;;;;22.26;24.92;101277.66;4920091;28;20046;-88
2023/03/14 06:30:53;;;;;;;18.02;6.40;;;;;;;21.77;25.45;101273.78;4939169;28;20265;-84
2023/03/14 06:33:20;;;;;;;9.82;5.53;;;;;;;22.07;25.01;101268.53;4961873;28;20193;-87
2023/03/14 06:35:46;;;;;;;13.13;5.40;;;;;;;22.12;25.38;101288.72;4954498;28;20499;-88
2023/03/14 06:38:14;;;;;;;16.33;5.82;;;;;;;21.93;25.22;101268.59;4967785;28;20488;-88
2023/03/14 06:40:40;;;;;;;12.00;5.88;;;;;;;21.93;25.97;101273.25;4936569;28;20089;-86
2023/03/14 06:43:09;;;;;;;8.85;3.70;;;;;;;21.62;25.47;101283.13;4936753;28;20054;-87
2023/03/14 06:45:55;;;;;;;8.38;3.33;;;;;;;21.41;25.62;101288.94;4936110;28;20065;-89
2023/03/14 06:48:21;;;;;;;8.18;3.60;;;;;;;20.68;26.36;101259.91;4956623;28;20168;-87
2023/03/14 06:50:48;;;;;;;6.95;3.10;;;;;;;20.21;27.10;101281.78;4953606;28;20121;-87
2023/03/14 06:53:13;;;;;;;6.78;2.90;;;;;;;19.35;28.32;101259.75;4938201;28;20050;-87
2023/03/14 06:55:40;;;;;;;8.95;3.22;;;;;;;19.15;29.24;101265.09;4962067;28;20092;-88
2023/03/14 06:58:07;;;;;;;9.68;4.88;;;;;;;19.24;29.08;101273.97;4965235;28;20046;-87
2023/03/14 07:00:36;;;;;;;9.85;3.90;;;;;;;18.25;30.30;101275.81;4966906;28;20035;-87
2023/03/14 07:03:03;;;;;;;6.38;3.20;;;;;;;18.32;30.63;101254.09;4973638;28;20054;-88
2023/03/14 07:05:31;;;;;;;5.15;1.92;;;;;;;18.03;30.99;101247.81;4940645;28;20050;-85
2023/03/14 07:07:58;;;;;;;5.50;2.80;;;;;;;17.36;32.00;101270.72;4933893;28;20107;-85
2023/03/14 07:10:23;;;;;;;5.68;2.03;;;;;;;16.00;34.03;101255.53;4938367;28;20411;-89
2023/03/14 07:12:49;;;;;;;;;;;;;;;16.51;33.70;101277.47;4945069;28;20057;-85
2023/03/14 07:15:14;;;;;;;;;;;;;;;16.18;34.30;101266.91;4954543;28;20253;-84
2023/03/14 07:17:40;;;;;;;4.28;1.92;;;;;;;16.29;34.00;101253.91;4949613;29;20283;-85
2023/03/14 07:20:09;;;;;;;3.38;1.80;;;;;;;16.21;34.62;101252.13;4953432;28;20054;-84
2023/03/14 07:22:41;;;;;;;5.38;1.63;;;;;;;16.10;34.85;101244.44;4935103;28;20157;-86
2023/03/14 07:25:09;;;;;;;5.15;1.75;;;;;;;16.23;34.66;101259.06;4962222;28;20129;-84
2023/03/14 07:27:34;;;;;;;4.85;1.50;;;;;;;15.29;35.83;101252.06;4980755;28;20218;-84
2023/03/14 07:30:01;;;;;;;4.57;1.70;;;;;;;15.75;35.70;101265.72;4954958;28;20495;-86
2023/03/14 07:32:27;;;;;;;4.53;1.70;;;;;;;16.14;34.66;101230.31;4961590;28;20039;-83
2023/03/14 07:34:52;;;;;;;;;;;;;;;16.51;34.59;101257.63;4979779;28;20047;-86
2023/03/14 07:37:19;;;;;;;6.32;2.25;;;;;;;16.06;34.71;101227.69;4975785;28;19960;-84
2023/03/14 07:39:45;;;;;;;3.55;1.80;;;;;;;16.71;33.88;101236.19;4939181;28;20054;-86
2023/03/14 07:42:24;;;;;;;3.50;1.42;;;;;;;16.45;34.23;101246.44;4943956;28;20058;-86
2023/03/14 07:44:51;;;;;;;4.78;1.88;;;;;;;16.80;33.39;101232.38;4971163;28;20371;-88
2023/03/14 07:47:18;;;;;;;;;;;;;;;16.80;34.31;101259.53;4972132;28;20133;-89
2023/03/14 07:49:44;;;;;;;5.72;1.73;;;;;;;16.60;34.28;101230.19;4954128;28;20103;-86
2023/03/14 07:52:11;;;;;;;;;;;;;;;17.21;33.43;101250.88;4950375;28;20058;-87
2023/03/14 07:54:36;;;;;;;2.58;1.38;;;;;;;17.03;33.54;101229.53;4953266;28;20243;-89
2023/03/14 07:57:05;;;;;;;;;;;;;;;17.00;33.83;101251.66;4969323;28;20050;-86
2023/03/14 08:03:13;;;;;;;5.15;1.50;;;;;;;17.34;32.64;101223.84;4981342;28;20036;-96
2023/03/14 08:05:42;;;;;;;3.75;1.40;;;;;;;18.81;30.67;101219.69;4958055;28;20057;-92
2023/03/14 08:08:12;;;;;;;4.80;1.55;;;;;;;19.80;29.22;101233.66;4933476;28;20066;-96
2023/03/14 08:10:57;;;;;;;4.35;1.75;;;;;;;21.02;27.84;101198.63;4960001;28;20058;-96
2023/03/14 08:13:32;;;;;;;3.97;1.55;;;;;;;21.99;26.09;101205.84;4970498;28;20142;-90
2023/03/14 08:15:58;;;;;;;4.25;1.75;;;;;;;20.85;27.14;101190.06;4946003;28;20441;-87
2023/03/14 08:18:24;;;;;;;6.75;1.63;;;;;;;21.88;26.49;101218.34;4958423;28;20118;-95
2023/03/14 08:20:54;;;;;;;6.18;1.60;;;;;;;22.60;25.09;101196.84;4949783;28;20054;-95
2023/03/14 08:23:34;;;;;;;5.35;1.50;;;;;;;22.28;25.27;101221.59;4924341;29;20145;-93
2023/03/14 08:26:11;;;;;;;4.82;1.42;;;;;;;22.24;25.64;101211.31;4940107;29;20039;-90
2023/03/14 08:28:37;;;;;;;9.05;2.15;;;;;;;21.84;26.09;101197.94;4915666;29;20134;-88
2023/03/14 08:31:03;;;;;;;5.30;1.52;;;;;;;21.76;25.86;101196.31;4919779;29;20121;-89
2023/03/14 08:33:34;;;;;;;3.67;1.40;;;;;;;21.79;25.94;101197.78;4923868;28;20098;-92
2023/03/14 08:36:06;;;;;;;4.63;1.30;;;;;;;22.62;25.34;101215.81;4902035;29;20109;-89
2023/03/14 08:38:32;;;;;;;4.10;1.60;;;;;;;23.05;24.36;101193.81;4948435;28;20039;-88
2023/03/14 08:40:58;;;;;;;5.32;1.20;;;;;;;21.93;25.39;101182.91;4952195;29;20035;-90
2023/03/14 08:43:28;;;;;;;4.80;1.10;;;;;;;19.98;28.33;101173.00;4935621;29;20547;-94
2023/03/14 08:45:59;;;;;;;2.08;1.17;;;;;;;20.36;28.25;101207.81;4928057;29;20054;-87
2023/03/14 08:48:35;;;;;;;6.15;1.55;;;;;;;20.99;27.78;101179.09;4946483;28;20038;-91
2023/03/14 08:51:16;;;;;;;6.13;1.58;;;;;;;20.68;27.69;101175.22;4950213;28;20114;-92
2023/03/14 08:53:45;;;;;;;4.00;1.38;;;;;;;20.60;28.48;101191.84;4938555;29;20047;-87
2023/03/14 08:56:10;;;;;;;3.42;1.20;;;;;;;19.84;28.96;101186.88;4937970;29;20118;-86
2023/03/14 08:58:38;;;;;;;4.45;1.50;;;;;;;19.34;29.93;101184.47;4921295;28;20130;-86
2023/03/14 09:01:11;;;;;;;4.93;1.55;;;;;;;19.73;29.42;101185.59;4956250;28;20050;-90
2023/03/14 09:03:40;;;;;;;3.88;1.15;;;;;;;20.47;28.34;101148.16;4936650;29;20077;-84
2023/03/14 09:06:08;;;;;;;3.15;1.48;;;;;;;21.88;27.38;101161.69;4952918;28;20523;-86
2023/03/14 09:08:34;;;;;;;3.83;1.30;;;;;;;21.02;28.10;101176.75;4914722;29;20043;-84
2023/03/14 09:11:02;;;;;;;4.63;1.40;;;;;;;21.15;27.68;101145.78;4932803;29;20213;-89
2023/03/14 09:13:35;;;;;;;4.43;1.30;;;;;;;21.02;27.56;101143.94;4937701;29;20046;-94
2023/03/14 09:16:20;;;;;;;4.07;1.65;;;;;;;22.14;26.38;101159.78;4966279;28;20047;-91
2023/03/14 09:18:45;;;;;;;5.68;1.60;;;;;;;23.43;24.70;101136.94;4950027;29;20035;-89
2023/03/14 09:21:18;;;;;;;5.07;1.20;;;;;;;22.64;25.54;101164.34;4959950;28;20087;-88
2023/03/14 09:23:48;;;;;;;4.25;1.55;;;;;;;23.59;24.92;101134.34;4939180;28;20057;-91
2023/03/14 09:26:18;;;;;;;3.35;1.17;;;;;;;23.67;24.17;101146.91;4953032;28;20082;-90
2023/03/14 09:28:45;;;;;;;4.10;1.65;;;;;;;24.59;23.01;101129.84;4962007;28;20133;-90
2023/03/14 09:31:13;;;;;;;3.22;1.30;;;;;;;24.58;23.29;101135.56;4957396;28;20083;-91
2023/03/14 09:33:44;;;;;;;3.35;1.40;;;;;;;24.66;23.15;101137.13;4937728;28;20084;-91
2023/03/14 09:36:10;;;;;;;5.55;3.05;;;;;;;24.51;23.22;101127.44;4958406;28;20046;-91
2023/03/14 09:38:40;;;;;;;4.00;1.65;;;;;;;26.78;21.51;101141.22;4951715;28;20050;-89
2023/03/14 09:41:21;;;;;;;3.05;1.40;;;;;;;25.91;21.66;101140.81;4942614;28;20051;-89
2023/03/14 09:43:50;;;;;;;5.78;1.60;;;;;;;25.69;22.04;101141.56;4951812;28;20075;-90
2023/03/14 09:46:20;;;;;;;8.00;1.70;;;;;;;28.40;19.66;101123.56;4942000;28;20403;-90
2023/03/14 09:48:47;;;;;;;3.45;1.40;;;;;;;26.53;20.51;101123.25;4943395;28;20055;-90
2023/03/14 09:51:16;;;;;;;4.22;1.30;;;;;;;26.59;20.50;101126.91;4957942;28;20049;-90
2023/03/14 09:53:47;;;;;;;2.78;1.20;;;;;;;25.15;22.22;101145.78;4942904;28;20484;-90
2023/03/14 09:56:22;;;;;;;5.15;1.20;;;;;;;27.00;20.30;101128.25;4934918;28;20113;-90
2023/03/14 09:59:01;;;;;;;4.35;1.45;;;;;;;27.79;19.61;101127.63;4926587;28;20081;-90
2023/03/14 10:01:31;;;;;;;2.72;1.20;;;;;;;27.19;19.83;101105.81;4901424;29;20423;-91
2023/03/14 10:03:58;;;;;;;4.28;1.23;;;;;;;26.35;20.97;101109.78;4893724;29;20430;-91
2023/03/14 10:06:29;;;;;;;4.38;1.00;;;;;;;25.52;21.33;101099.44;4880367;29;20478;-89
2023/03/14 10:08:56;;;;;;;3.03;1.30;;;;;;;25.65;21.62;101090.00;4889242;29;20076;-92
2023/03/14 10:11:22;;;;;;;3.25;1.27;;;;;;;27.08;20.47;101097.41;4888527;29;20503;-89
2023/03/14 10:14:06;;;;;;;4.80;1.27;;;;;;;26.71;20.61;101117.44;4891387;29;20048;-90
2023/03/14 10:16:39;;;;;;;6.70;1.30;;;;;;;25.41;22.03;101103.91;4892627;29;20063;-89
2023/03/14 10:19:23;;;;;;;3.33;1.27;;;;;;;25.09;22.48;101108.25;4886330;29;20517;-89
2023/03/14 10:21:53;;;;;;;4.25;1.35;;;;;;;25.02;22.26;101067.97;4890878;29;20553;-89
2023/03/14 10:24:25;;;;;;;3.88;1.50;;;;;;;25.74;21.55;101096.75;4876536;29;20062;-89
2023/03/14 10:27:06;;;;;;;3.55;1.38;;;;;;;23.85;23.94;101098.47;4912976;29;20055;-88
2023/03/14 10:29:33;;;;;;;2.88;1.45;;;;;;;23.15;24.13;101092.59;4895868;29;20610;-89
2023/03/14 10:32:10;;;;;;;4.53;1.42;;;;;;;25.08;22.52;101087.34;4909668;29;20040;-90
2023/03/14 10:34:41;;;;;;;3.22;1.20;;;;;;;24.31;23.21;101066.56;4918038;29;20044;-89
2023/03/14 10:37:27;;;;;;;3.85;1.60;;;;;;;26.29;21.50;101054.59;4914128;29;20059;-88
2023/03/14 10:39:57;;;;;;;3.28;1.20;;;;;;;25.47;21.94;101050.63;4928399;29;20032;-89
2023/03/14 10:42:33;;;;;;;4.78;1.50;;;;;;;25.64;21.94;101049.78;4887528;29;20070;-89
2023/03/14 10:45:02;;;;;;;2.65;1.30;;;;;;;24.74;22.13;101048.75;4894685;29;20059;-89
2023/03/14 10:47:30;;;;;;;3.00;1.40;;;;;;;24.95;21.96;101042.53;4897511;29;20397;-88
2023/03/14 10:50:29;;;;;;;2.97;1.30;;;;;;;24.02;22.95;101039.00;4901416;29;20119;-90
2023/03/14 10:53:05;;;;;;;4.93;1.35;;;;;;;24.78;21.99;101014.19;4953773;28;20468;-90
2023/03/14 10:55:42;;;;;;;1.58;0.90;;;;;;;25.00;22.33;101028.88;4969462;28;20042;-88
2023/03/14 10:58:28;;;;;;;3.15;1.42;;;;;;;24.94;22.07;101018.06;4932549;29;20097;-88
2023/03/14 11:02:00;;;;;;;;;;;;;;;;;;;;;
2023/03/14 11:04:57;;;;;;;2.65;1.13;;;;;;;25.34;21.98;101019.88;4964936;28;20050;-88
2023/03/14 11:07:29;;;;;;;3.45;1.38;;;;;;;25.00;21.91;100976.63;4951681;28;20043;-90
2023/03/14 11:10:22;;;;;;;4.20;1.33;;;;;;;25.43;21.81;100988.09;4962009;28;20042;-91
2023/03/14 11:13:17;;;;;;;2.60;1.02;;;;;;;23.82;22.94;100997.41;4941414;28;20460;-89
2023/03/14 11:16:33;;;;;;;2.20;1.10;;;;;;;24.73;22.34;100986.63;4954187;28;20132;-88
2023/03/14 11:19:17;;;;;;;3.25;1.30;;;;;;;25.52;21.39;100985.72;4900303;29;20048;-90
2023/03/14 11:22:02;;;;;;;2.97;1.30;;;;;;;24.45;21.82;100977.28;4916951;28;20047;-89
2023/03/14 11:24:43;;;;;;;5.00;1.30;;;;;;;22.76;23.66;100965.19;4983329;28;20054;-88
2023/03/14 11:27:28;;;;;;;3.78;1.38;;;;;;;23.49;23.07;100935.69;4980724;28;20053;-89
2023/03/14 11:30:12;;;;;;;3.00;1.20;;;;;;;24.79;21.64;100947.94;4938535;29;20082;-90
2023/03/14 11:32:47;;;;;;;7.13;1.50;;;;;;;23.60;23.00;100915.66;4952247;28;20447;-89
2023/03/14 11:35:31;;;;;;;3.15;1.15;;;;;;;22.48;24.94;100950.19;4930734;28;20495;-90
2023/03/14 11:38:15;;;;;;;5.68;1.73;;;;;;;22.74;25.60;100939.91;4951423;28;20508;-89
2023/03/14 11:40:41;;;;;;;4.00;1.45;;;;;;;22.38;25.44;100906.06;4968831;28;20038;-88
2023/03/14 11:43:30;;;;;;;3.15;1.20;;;;;;;21.62;26.41;100897.38;4967642;28;20129;-89